Aberdeen, Ohio
Current Conditions -  °F | °C
As of 3:15 PM on Friday 21 Nov 2014 (Local Time) from KFGX Reporting Station
Clear Clear  
Wind Chill: 34°   Ceiling: Unl
Heat Index: 34°   Visibility: 10mi
Dew Point:   Wind: 0mph
Humidity: 33%   Direction: NA
Pressure: 30.48"   Gusts: NA
Location:  38.66°N, 83.76°W
Report Text: KFGX 212015Z AUTO 00000KT 10SM CLR 01/M14 A3048 RMK AO2 T00091139
Loading
Personal Weather Stations






























Interactive Weather Map New forecast layout! Learn more

10-Day Weather Forecast

Advertisements
Track Severe Weather on mobile